Flight Track Log - Related Links

Times and Time Zones

All times are in EDT time to prevent confusion due to time zone crossing. See the FIN666 flight status page for this flight to view local times or setup timezone preferences in your user account.

Time Position Orientation Groundspeed Altitude Reporting Facility
EDT Latitude Longitude Course Direction KTS MPH feet Rate Location/Type
Sat 07:37:00 AM 55.9658 13.3788 49° Northeast  Level Estimated
Sat 07:38:00 AM 56.0349 13.5249 50° Northeast  Level Estimated
Sat 07:39:00 AM 56.1037 13.6716 50° Northeast  Level Estimated
Sat 07:40:00 AM 56.1753 13.8249 50° Northeast  Level Estimated
Sat 07:41:00 AM 56.2467 13.9788 50° Northeast  Level Estimated
Sat 07:42:00 AM 56.3179 14.1332 50° Northeast  Level Estimated
Sat 07:43:00 AM 56.3889 14.2882 50° Northeast  Level Estimated
Sat 07:44:00 AM 56.4597 14.4439 50° Northeast  Level Estimated
Sat 07:45:00 AM 56.5303 14.6001 51° Northeast  Level Estimated
Sat 07:46:00 AM 56.6007 14.7568 51° Northeast  Level Estimated
Sat 07:47:00 AM 56.6710 14.9142 51° Northeast  Level Estimated
Sat 07:48:00 AM 56.7410 15.0721 51° Northeast  Level Estimated
Sat 07:49:00 AM 56.8108 15.2307 51° Northeast  Level Estimated
Sat 07:50:00 AM 56.8804 15.3898 51° Northeast  Level Estimated
Sat 07:51:00 AM 56.9498 15.5495 51° Northeast  Level Estimated
Sat 07:52:00 AM 57.0190 15.7098 52° Northeast  Level Estimated
Sat 07:53:00 AM 57.0880 15.8708 52° Northeast  Level Estimated
Sat 07:54:00 AM 57.1568 16.0323 52° Northeast  Level Estimated
Sat 07:55:00 AM 57.2254 16.1944 52° Northeast  Level Estimated
Sat 07:56:00 AM 57.2948 16.3594 52° Northeast  Level Estimated
Sat 07:57:00 AM 57.3639 16.5250 52° Northeast  Level Estimated
Sat 07:58:00 AM 57.4328 16.6913 52° Northeast  Level Estimated
Sat 07:59:00 AM 57.5015 16.8582 53° Northeast  Level Estimated
Sat 08:00:00 AM 57.5699 17.0257 53° Northeast  Level Estimated
Sat 08:01:00 AM 57.6382 17.1938 53° Northeast  Level Estimated
Sat 08:02:00 AM 57.7062 17.3626 53° Northeast  Level Estimated
Sat 08:03:00 AM 57.7740 17.5320 53° Northeast  Level Estimated
Sat 08:04:00 AM 57.8415 17.7021 53° Northeast  Level Estimated
Sat 08:05:00 AM 57.9089 17.8727 53° Northeast  Level Estimated
Sat 08:06:00 AM 57.9760 18.0441 54° Northeast  Level Estimated
Sat 08:07:00 AM 58.0429 18.2160 54° Northeast  Level Estimated
Sat 08:08:00 AM 58.1095 18.3886 54° Northeast  Level Estimated
Sat 08:09:00 AM 58.1759 18.5619 54° Northeast  Level Estimated
Sat 08:10:00 AM 58.2421 18.7358 54° Northeast  Level Estimated
Sat 08:11:00 AM 58.3080 18.9103 54° Northeast  Level Estimated
Sat 08:12:00 AM 58.3737 19.0855 54° Northeast  Level Estimated
Sat 08:13:00 AM 58.4392 19.2614 55° Northeast  Level Estimated
Sat 08:14:00 AM 58.5044 19.4379 55° Northeast  Level Estimated
Sat 08:15:00 AM 58.5694 19.6151 55° Northeast  Level Estimated
Sat 08:16:00 AM 58.6341 19.7929 55° Northeast  Level Estimated
Sat 08:17:00 AM 58.6986 19.9714 55° Northeast  Level Estimated
Sat 08:18:00 AM 58.7628 20.1505 55° Northeast  Level Estimated
Sat 08:19:00 AM 58.8268 20.3303 55° Northeast  Level Estimated
Sat 08:20:00 AM 58.8905 20.5108 56° Northeast  Level Estimated
Sat 08:21:00 AM 58.9540 20.6919 56° Northeast  Level Estimated
Sat 08:22:00 AM 59.0172 20.8737 56° Northeast  Level Estimated
Sat 08:23:00 AM 59.0802 21.0562 56° Northeast  Level Estimated
Sat 08:24:00 AM 59.1429 21.2393 56° Northeast  Level Estimated
Sat 08:25:00 AM 59.2054 21.4231 56° Northeast  Level Estimated
Sat 08:26:00 AM 59.2676 21.6076 57° Northeast  Level Estimated
Sat 08:27:00 AM 59.3295 21.7927 57° Northeast  Level Estimated
Sat 08:28:00 AM 59.3912 21.9786 57° Northeast  Level Estimated
Sat 08:29:00 AM 59.4526 22.1651 57° Northeast  Level Estimated
Sat 08:30:00 AM 59.5137 22.3523 57° Northeast  Level Estimated
Sat 08:31:00 AM 59.5746 22.5401 57° Northeast  Level Estimated
Sat 08:32:00 AM 59.6352 22.7287 57° Northeast  Level Estimated
Sat 08:33:00 AM 59.6955 22.9179 58° Northeast  Level Estimated
Sat 08:34:00 AM 59.7556 23.1078 58° Northeast  Level Estimated
Sat 08:35:00 AM 59.8154 23.2984 58° Northeast  Level Estimated
Sat 08:36:00 AM 59.8749 23.4896 58° Northeast  Level Estimated
Sat 08:37:00 AM 59.9341 23.6816 58° Northeast  Level Estimated
Sat 08:38:00 AM 59.9930 23.8742 58° Northeast  Level Estimated
Sat 08:39:00 AM 60.0517 24.0675 59° Northeast  Level Estimated
Sat 08:40:00 AM 60.1101 24.2615 59° Northeast  Level Estimated
Sat 08:41:00 AM 60.1682 24.4562 59° Northeast  Level Estimated
Sat 08:42:00 AM 60.2260 24.6516 59° Northeast  Level Estimated
Sat 08:43:00 AM 60.2835 24.8477 59° Northeast  Level Estimated
Sat 08:44:00 AM 60.3172 24.9633 59° Northeast  Level Estimated
Sat 08:45:00 AM 60.3172 24.9633 North  Level Estimated
Sat 08:46:00 AM 60.3172 24.9633 North  Level Estimated
Sat 08:47:00 AM 60.3172 24.9633 North  Level Estimated
Sat 08:48:00 AM 60.3172 24.9633 North  Level Estimated
Sat 08:49:00 AM 60.3172 24.9633 North  Level Estimated
Sat 08:50:00 AM 60.3172 24.9633 North  Level Estimated
Sat 08:51:00 AM 60.3172 24.9633 North  Level Estimated
Sat 08:52:00 AM 60.3172 24.9633 North  Level Estimated
Sat 08:53:00 AM 60.3172 24.9633 North  Level Estimated
Sat 08:54:00 AM 60.3172 24.9633 North  Level Estimated
Sat 08:55:00 AM 60.3172 24.9633 North  Level Estimated
Sat 08:56:00 AM 60.3172 24.9633 North  Level Estimated
Sat 08:57:00 AM 60.3172 24.9633 North  Level Estimated

Login

Don't have an account? Register now (free) for customized features, flight alerts, and more!